Time;durP1;ratioP1;P1;durP2;ratioP2;P2;SDS_P1;SDS_P2;PMS_P1;PMS_P2;Temp;Humidity;BMP_temperature;BMP_pressure;BME280_temperature;BME280_humidity;BME280_pressure;Samples;Min_cycle;Max_cycle;Signal;HPM_P1;HPM_P2
2022/06/27 00:00:21;;;;;;;9.15;5.13;;;16.90;99.90;;;;;;5076360;28;20600;-45
2022/06/27 00:02:47;;;;;;;8.32;5.40;;;17.30;99.90;;;;;;5075803;28;20739;-47
2022/06/27 00:05:13;;;;;;;9.20;5.20;;;17.10;99.90;;;;;;5075857;28;20040;-44
2022/06/27 00:07:39;;;;;;;7.18;4.75;;;17.30;99.90;;;;;;5076862;28;20044;-47
2022/06/27 00:10:08;;;;;;;8.18;4.50;;;16.70;99.90;;;;;;5075981;28;20059;-44
2022/06/27 00:12:34;;;;;;;9.90;4.65;;;17.90;99.90;;;;;;5077340;28;20038;-46
2022/06/27 00:15:00;;;;;;;7.03;6.15;;;15.40;99.90;;;;;;5075163;28;20048;-45
2022/06/27 00:17:29;;;;;;;9.30;5.65;;;17.80;99.90;;;;;;5075972;28;20123;-45
2022/06/27 00:19:55;;;;;;;8.60;5.32;;;16.20;99.90;;;;;;5076233;28;20152;-45
2022/06/27 00:22:20;;;;;;;9.05;5.28;;;16.00;99.90;;;;;;5075728;28;20038;-45
2022/06/27 00:24:48;;;;;;;8.95;5.55;;;15.90;99.90;;;;;;5073318;28;20100;-43
2022/06/27 00:27:14;;;;;;;10.27;5.60;;;17.00;99.90;;;;;;5075414;28;20032;-43
2022/06/27 00:29:41;;;;;;;9.05;5.75;;;16.00;99.90;;;;;;5075833;28;20447;-47
2022/06/27 00:32:08;;;;;;;11.43;5.75;;;18.10;99.90;;;;;;5075786;28;20074;-43
2022/06/27 00:34:34;;;;;;;8.65;5.80;;;16.10;99.90;;;;;;5074688;28;20036;-46
2022/06/27 00:37:00;;;;;;;8.25;5.45;;;15.90;99.90;;;;;;5076584;28;20036;-47
2022/06/27 00:39:26;;;;;;;7.90;5.65;;;16.50;99.90;;;;;;5076046;28;20047;-46
2022/06/27 00:41:52;;;;;;;9.93;6.30;;;16.10;99.90;;;;;;5074690;28;20113;-44
2022/06/27 00:44:35;;;;;;;8.70;6.03;;;17.90;99.90;;;;;;5075506;28;20412;-49
2022/06/27 00:47:05;;;;;;;10.57;6.63;;;15.90;99.90;;;;;;5073704;28;20052;-44
2022/06/27 00:49:32;;;;;;;10.13;6.88;;;15.90;99.90;;;;;;5076341;28;20086;-44
2022/06/27 00:51:58;;;;;;;11.07;7.68;;;15.80;99.90;;;;;;5076678;28;20036;-45
2022/06/27 00:54:24;;;;;;;10.40;7.07;;;15.80;99.90;;;;;;5076403;28;20115;-45
2022/06/27 00:56:51;;;;;;;9.98;7.25;;;15.80;99.90;;;;;;5074902;28;20058;-44
2022/06/27 00:59:18;;;;;;;7.90;6.82;;;15.70;99.90;;;;;;5076340;28;20691;-46
2022/06/27 01:01:43;;;;;;;12.50;7.78;;;16.20;99.90;;;;;;5076194;28;20059;-43
2022/06/27 01:04:09;;;;;;;12.40;8.60;;;15.90;99.90;;;;;;5076294;28;20492;-46
2022/06/27 01:06:35;;;;;;;12.05;9.43;;;15.70;99.90;;;;;;5075225;28;20048;-45
2022/06/27 01:09:01;;;;;;;13.02;9.05;;;15.70;99.90;;;;;;5074252;28;20032;-48
2022/06/27 01:11:29;;;;;;;12.45;9.60;;;15.70;99.90;;;;;;5075326;28;20040;-44
2022/06/27 01:13:55;;;;;;;10.50;8.07;;;17.00;99.90;;;;;;5075007;28;20658;-44
2022/06/27 01:16:21;;;;;;;10.07;8.80;;;17.60;99.90;;;;;;5073428;28;20040;-44
2022/06/27 01:18:49;;;;;;;11.40;7.75;;;15.70;99.90;;;;;;5074065;28;20043;-44
2022/06/27 01:21:21;;;;;;;14.75;8.27;;;17.10;99.90;;;;;;5073844;28;20036;-45
2022/06/27 01:23:47;;;;;;;12.98;9.70;;;15.80;99.90;;;;;;5073358;28;20042;-47
2022/06/27 01:26:12;;;;;;;10.07;8.95;;;15.70;99.90;;;;;;5073385;28;20043;-42
2022/06/27 01:28:38;;;;;;;11.48;8.90;;;15.60;99.90;;;;;;5073113;28;20062;-43
2022/06/27 01:31:04;;;;;;;11.55;8.77;;;16.70;99.90;;;;;;5073376;28;20126;-47
2022/06/27 01:33:29;;;;;;;12.30;8.77;;;15.80;99.90;;;;;;5073742;28;20053;-43
2022/06/27 01:36:41;;;;;;;11.50;8.27;;;16.10;99.90;;;;;;5073610;28;20051;-46
2022/06/27 01:38:43;;;;;;;12.48;8.48;;;15.90;99.90;;;;;;5073332;28;20052;-44
2022/06/27 01:41:09;;;;;;;12.43;9.57;;;15.40;99.90;;;;;;5073248;28;20516;-49
2022/06/27 01:43:34;;;;;;;15.68;9.82;;;17.70;99.90;;;;;;5071956;28;20036;-45
2022/06/27 01:46:00;;;;;;;14.55;10.23;;;15.70;99.90;;;;;;5073851;28;20139;-44
2022/06/27 01:48:28;;;;;;;15.20;10.20;;;16.50;99.90;;;;;;5074034;28;20044;-43
2022/06/27 01:50:55;;;;;;;12.23;10.40;;;15.80;99.90;;;;;;5072950;28;20047;-46
2022/06/27 01:53:24;;;;;;;12.10;10.65;;;17.80;99.90;;;;;;5073129;28;20138;-43
2022/06/27 01:55:50;;;;;;;12.88;9.85;;;15.50;99.90;;;;;;5072761;28;20040;-43
2022/06/27 01:58:16;;;;;;;16.58;10.32;;;15.70;99.90;;;;;;5073530;28;20039;-45
2022/06/27 02:00:42;;;;;;;12.73;10.85;;;15.60;99.90;;;;;;5073296;28;20052;-46
2022/06/27 02:03:07;;;;;;;13.07;11.05;;;15.60;99.90;;;;;;5073301;28;20102;-47
2022/06/27 02:05:33;;;;;;;15.23;9.93;;;15.60;99.90;;;;;;5074000;28;20032;-45
2022/06/27 02:08:02;;;;;;;14.48;11.30;;;15.60;99.90;;;;;;5075604;28;20036;-44
2022/06/27 02:10:28;;;;;;;14.10;11.98;;;15.80;99.90;;;;;;5072811;28;20056;-45
2022/06/27 02:12:54;;;;;;;14.60;12.98;;;16.90;99.90;;;;;;5073161;28;20062;-45
2022/06/27 02:15:22;;;;;;;13.70;12.27;;;15.60;99.90;;;;;;5072295;28;20039;-47
2022/06/27 02:17:48;;;;;;;13.90;11.02;;;16.00;99.90;;;;;;5073452;28;20036;-46
2022/06/27 02:20:14;;;;;;;13.50;12.20;;;15.70;99.90;;;;;;5074936;28;20400;-47
2022/06/27 02:22:40;;;;;;;14.05;11.82;;;16.60;99.90;;;;;;5073853;28;20054;-45
2022/06/27 02:25:06;;;;;;;13.55;11.15;;;15.80;99.90;;;;;;5073846;28;20036;-47
2022/06/27 02:27:35;;;;;;;14.88;11.38;;;15.70;99.90;;;;;;5072153;28;20040;-45
2022/06/27 02:30:01;;;;;;;12.85;11.27;;;16.90;99.90;;;;;;5072113;28;20493;-43
2022/06/27 02:32:28;;;;;;;17.02;12.50;;;15.80;99.90;;;;;;5073497;28;20056;-48
2022/06/27 02:34:56;;;;;;;18.17;12.80;;;15.30;99.90;;;;;;5071080;28;20050;-43
2022/06/27 02:37:24;;;;;;;14.45;11.80;;;15.90;99.90;;;;;;5073299;28;20081;-46
2022/06/27 02:39:52;;;;;;;14.20;11.70;;;15.60;99.90;;;;;;5071907;28;20487;-45
2022/06/27 02:42:21;;;;;;;14.77;12.15;;;16.50;99.90;;;;;;5072272;28;20568;-47
2022/06/27 02:44:50;;;;;;;16.67;13.38;;;16.50;99.90;;;;;;5071775;28;20051;-48
2022/06/27 02:47:20;;;;;;;13.45;12.05;;;15.60;99.90;;;;;;5071853;28;22007;-46
2022/06/27 02:49:46;;;;;;;17.13;13.30;;;15.70;99.90;;;;;;5071923;28;20094;-46
2022/06/27 02:52:33;;;;;;;14.23;12.77;;;15.70;99.90;;;;;;5072203;28;20035;-43
2022/06/27 02:55:11;;;;;;;15.57;12.32;;;15.80;99.90;;;;;;5070665;28;20332;-47
2022/06/27 02:58:02;;;;;;;14.88;12.45;;;15.80;99.90;;;;;;5072015;28;20119;-43
2022/06/27 03:00:29;;;;;;;19.10;12.52;;;16.10;99.90;;;;;;5072055;28;20113;-48
2022/06/27 03:02:56;;;;;;;17.77;14.63;;;15.60;99.90;;;;;;5072126;28;20078;-45
2022/06/27 03:05:22;;;;;;;18.40;15.27;;;15.70;99.90;;;;;;5071884;28;20601;-44
2022/06/27 03:07:48;;;;;;;14.85;13.27;;;15.60;99.90;;;;;;5072026;28;20040;-46
2022/06/27 03:10:15;;;;;;;18.23;14.63;;;15.50;99.90;;;;;;5074945;28;20166;-46
2022/06/27 03:12:41;;;;;;;19.73;16.00;;;17.90;99.90;;;;;;5076717;28;20510;-43
2022/06/27 03:15:08;;;;;;;16.75;14.77;;;16.90;99.90;;;;;;5077239;28;20131;-47
2022/06/27 03:17:34;;;;;;;17.90;16.02;;;15.70;99.90;;;;;;5076642;28;20051;-46
2022/06/27 03:20:00;;;;;;;17.75;15.85;;;15.60;99.90;;;;;;5078305;28;20036;-43
2022/06/27 03:22:27;;;;;;;20.55;17.23;;;17.00;99.90;;;;;;5076249;28;20032;-44
2022/06/27 03:24:52;;;;;;;23.83;17.48;;;15.80;99.90;;;;;;5075236;28;20131;-45
2022/06/27 03:27:18;;;;;;;22.20;17.80;;;15.50;99.90;;;;;;5076726;28;20131;-44
2022/06/27 03:29:44;;;;;;;17.50;15.18;;;15.80;99.90;;;;;;5077158;28;20602;-44
2022/06/27 03:32:10;;;;;;;16.92;15.13;;;16.30;99.90;;;;;;5076674;28;20036;-45
2022/06/27 03:34:35;;;;;;;17.90;15.32;;;16.00;99.90;;;;;;5076281;28;20472;-44
2022/06/27 03:37:01;;;;;;;16.48;14.98;;;15.70;99.90;;;;;;5075758;28;20094;-46
2022/06/27 03:39:27;;;;;;;16.85;15.07;;;15.70;99.90;;;;;;5075743;28;20158;-45
2022/06/27 03:41:53;;;;;;;31.58;15.95;;;16.60;99.90;;;;;;5073793;28;20040;-46
2022/06/27 03:44:18;;;;;;;17.90;15.77;;;15.60;99.90;;;;;;5075719;28;20043;-46
2022/06/27 03:46:44;;;;;;;17.50;15.10;;;15.70;99.90;;;;;;5075064;28;20556;-44
2022/06/27 03:51:54;;;;;;;15.95;13.98;;;15.70;99.90;;;;;;5075226;28;20075;-46
2022/06/27 03:54:20;;;;;;;16.92;15.00;;;15.70;99.90;;;;;;5074968;28;20149;-45
2022/06/27 03:56:46;;;;;;;16.80;15.10;;;16.70;99.90;;;;;;5075597;28;20139;-44
2022/06/27 03:59:14;;;;;;;16.55;14.85;;;16.00;99.90;;;;;;5076843;28;20036;-44
2022/06/27 04:01:41;;;;;;;17.95;15.15;;;15.70;99.90;;;;;;5075691;28;20067;-44
2022/06/27 04:04:07;;;;;;;18.25;14.98;;;15.60;99.90;;;;;;5075521;28;20032;-45
2022/06/27 04:06:33;;;;;;;15.50;13.90;;;15.70;99.90;;;;;;5075423;28;20028;-47
2022/06/27 04:08:59;;;;;;;18.50;15.38;;;15.90;99.90;;;;;;5076021;28;20040;-44
2022/06/27 04:11:24;;;;;;;21.35;17.05;;;16.90;99.90;;;;;;5075098;28;20043;-48
2022/06/27 04:13:50;;;;;;;19.48;15.52;;;16.50;99.90;;;;;;5074033;28;20042;-47
2022/06/27 04:16:16;;;;;;;17.33;15.18;;;15.90;99.90;;;;;;5074451;28;20393;-47
2022/06/27 04:18:41;;;;;;;16.75;14.98;;;18.00;99.90;;;;;;5076286;28;20072;-47
2022/06/27 04:21:07;;;;;;;15.77;14.18;;;17.40;99.90;;;;;;5073854;28;20036;-48
2022/06/27 04:23:34;;;;;;;16.80;14.32;;;15.80;99.90;;;;;;5075217;28;20571;-46
2022/06/27 04:26:00;;;;;;;18.42;16.42;;;15.90;99.90;;;;;;5073789;28;20253;-45
2022/06/27 04:28:26;;;;;;;18.70;15.90;;;17.90;99.90;;;;;;5075163;28;21077;-45
2022/06/27 04:30:52;;;;;;;18.38;15.38;;;16.00;99.90;;;;;;5072852;28;20066;-48
2022/06/27 04:33:19;;;;;;;18.20;16.30;;;17.00;99.90;;;;;;5074802;28;20404;-47
2022/06/27 04:35:46;;;;;;;21.15;16.48;;;17.80;99.90;;;;;;5075345;28;20100;-47
2022/06/27 04:38:13;;;;;;;18.77;16.60;;;15.90;99.90;;;;;;5076581;28;20196;-44
2022/06/27 04:40:39;;;;;;;18.02;15.07;;;18.20;99.90;;;;;;5075076;28;20032;-44
2022/06/27 04:43:06;;;;;;;18.25;16.27;;;16.80;99.90;;;;;;5075791;28;20044;-45
2022/06/27 04:45:34;;;;;;;20.65;18.38;;;16.10;99.90;;;;;;5074665;28;20043;-45
2022/06/27 04:48:00;;;;;;;19.38;16.52;;;16.10;99.90;;;;;;5074600;28;20044;-48
2022/06/27 04:50:27;;;;;;;20.42;18.15;;;16.20;99.90;;;;;;5076613;28;20040;-48
2022/06/27 04:52:54;;;;;;;21.98;19.55;;;18.20;99.90;;;;;;5075630;28;20107;-48
2022/06/27 04:55:20;;;;;;;21.48;19.17;;;16.30;99.90;;;;;;5075401;28;20040;-47
2022/06/27 04:57:46;;;;;;;22.50;20.08;;;18.50;99.90;;;;;;5073638;28;20670;-46
2022/06/27 05:00:15;;;;;;;24.45;20.55;;;16.20;99.90;;;;;;5073147;28;20052;-46
2022/06/27 05:02:41;;;;;;;25.77;20.70;;;16.40;99.90;;;;;;5074355;28;20051;-46
2022/06/27 05:05:08;;;;;;;28.13;21.65;;;16.10;99.90;;;;;;5073245;28;20126;-47
2022/06/27 05:07:34;;;;;;;24.00;20.17;;;16.50;99.90;;;;;;5072352;28;20056;-48
2022/06/27 05:10:00;;;;;;;26.00;20.33;;;18.50;99.90;;;;;;5073018;28;20047;-46
2022/06/27 05:12:27;;;;;;;27.30;21.60;;;16.40;99.90;;;;;;5074031;28;20055;-46
2022/06/27 05:14:54;;;;;;;22.48;20.02;;;15.30;99.90;;;;;;5072896;28;20034;-48
2022/06/27 05:17:21;;;;;;;23.80;20.42;;;16.50;99.90;;;;;;5073399;28;20047;-44
2022/06/27 05:19:46;;;;;;;21.95;19.58;;;17.90;99.90;;;;;;5073043;28;20093;-47
2022/06/27 05:22:12;;;;;;;22.33;19.38;;;16.50;99.90;;;;;;5074089;28;20039;-46
2022/06/27 05:24:38;;;;;;;22.02;19.63;;;16.80;99.90;;;;;;5073088;28;20063;-49
2022/06/27 05:27:04;;;;;;;23.13;19.73;;;16.40;99.90;;;;;;5070754;28;20504;-48
2022/06/27 05:29:32;;;;;;;20.92;18.42;;;16.60;99.90;;;;;;5071250;28;21151;-49
2022/06/27 05:31:59;;;;;;;23.48;19.35;;;16.60;99.90;;;;;;5072230;28;20040;-46
2022/06/27 05:34:24;;;;;;;20.02;18.02;;;17.10;99.90;;;;;;5072079;28;20055;-47
2022/06/27 05:36:52;;;;;;;19.23;16.88;;;16.70;99.90;;;;;;5072671;28;20036;-44
2022/06/27 05:39:18;;;;;;;18.88;15.85;;;16.90;99.90;;;;;;5072477;28;20135;-45
2022/06/27 05:41:45;;;;;;;16.52;14.98;;;16.80;99.90;;;;;;5074486;28;20628;-46
2022/06/27 05:44:13;;;;;;;14.52;13.13;;;19.20;99.90;;;;;;5074592;28;20788;-44
2022/06/27 05:46:40;;;;;;;13.95;12.52;;;17.00;99.90;;;;;;5072153;28;20052;-46
2022/06/27 05:49:08;;;;;;;12.57;10.70;;;16.90;99.90;;;;;;5073113;28;20379;-49
2022/06/27 05:51:35;;;;;;;11.18;9.05;;;17.70;99.90;;;;;;5073063;28;20489;-47
2022/06/27 05:54:01;;;;;;;8.75;6.60;;;17.00;99.90;;;;;;5074035;28;20526;-46
2022/06/27 05:56:28;;;;;;;8.48;6.88;;;17.00;99.90;;;;;;5073465;28;20887;-49
2022/06/27 05:58:55;;;;;;;6.78;5.30;;;17.00;99.90;;;;;;5073161;28;20043;-49
2022/06/27 06:01:22;;;;;;;6.63;4.57;;;17.10;99.90;;;;;;5074800;28;20048;-48
2022/06/27 06:03:48;;;;;;;5.88;4.40;;;17.50;99.90;;;;;;5072216;28;20044;-49
2022/06/27 06:06:16;;;;;;;12.55;5.70;;;17.60;99.90;;;;;;5074187;28;20036;-49
2022/06/27 06:08:43;;;;;;;6.80;4.57;;;17.20;99.90;;;;;;5074761;28;20551;-50
2022/06/27 06:11:12;;;;;;;5.72;4.30;;;18.40;99.90;;;;;;5073864;28;20686;-48
2022/06/27 06:13:38;;;;;;;6.45;4.47;;;17.20;99.90;;;;;;5073933;28;20043;-46
2022/06/27 06:16:10;;;;;;;6.97;4.32;;;19.30;99.90;;;;;;5074276;28;20048;-48
2022/06/27 06:18:37;;;;;;;5.88;4.70;;;17.20;99.90;;;;;;5072594;28;20047;-49
2022/06/27 06:21:04;;;;;;;6.13;4.10;;;19.40;99.90;;;;;;5073244;28;20319;-48
2022/06/27 06:23:32;;;;;;;7.57;4.25;;;18.90;99.90;;;;;;5072222;28;20467;-47
2022/06/27 06:25:58;;;;;;;6.07;4.00;;;17.10;99.90;;;;;;5070895;28;20180;-45
2022/06/27 06:28:25;;;;;;;5.85;3.25;;;19.30;99.90;;;;;;5072463;28;20036;-48
2022/06/27 06:30:51;;;;;;;4.78;3.30;;;17.00;99.90;;;;;;5072075;28;20920;-49
2022/06/27 06:33:17;;;;;;;4.65;2.80;;;17.30;99.90;;;;;;5073666;28;20043;-47
2022/06/27 06:35:42;;;;;;;5.63;3.40;;;18.50;99.90;;;;;;5070110;28;20081;-49
2022/06/27 06:38:08;;;;;;;5.68;2.90;;;18.00;99.90;;;;;;5071965;28;20040;-49
2022/06/27 06:40:36;;;;;;;5.38;3.00;;;18.00;99.90;;;;;;5072489;28;20065;-46
2022/06/27 06:43:03;;;;;;;5.22;3.25;;;17.90;99.90;;;;;;5071722;28;20051;-45
2022/06/27 06:45:30;;;;;;;8.20;3.83;;;17.00;99.90;;;;;;5069256;28;20075;-47
2022/06/27 06:47:56;;;;;;;5.47;3.83;;;16.90;99.90;;;;;;5071148;28;20055;-50
2022/06/27 06:50:22;;;;;;;10.65;3.67;;;16.90;99.90;;;;;;5071008;28;20044;-49
2022/06/27 06:52:50;;;;;;;5.50;3.47;;;17.70;99.90;;;;;;5072426;28;20044;-48
2022/06/27 06:55:18;;;;;;;6.47;4.20;;;16.80;99.90;;;;;;5071117;28;20288;-49
2022/06/27 06:57:44;;;;;;;6.70;4.57;;;17.10;99.90;;;;;;5070786;28;20048;-44
2022/06/27 07:00:11;;;;;;;7.85;4.60;;;16.80;99.90;;;;;;5071584;28;20040;-45
2022/06/27 07:02:37;;;;;;;8.43;4.63;;;17.00;99.90;;;;;;5071468;28;20064;-49
2022/06/27 07:05:04;;;;;;;8.05;4.25;;;17.30;99.90;;;;;;5071662;28;20040;-49
2022/06/27 07:07:33;;;;;;;5.80;3.90;;;17.00;99.90;;;;;;5073519;28;20040;-48
2022/06/27 07:09:59;;;;;;;6.65;4.07;;;18.00;99.90;;;;;;5073360;28;20684;-50
2022/06/27 07:12:25;;;;;;;5.28;3.42;;;17.30;99.90;;;;;;5072507;28;20039;-50
2022/06/27 07:14:54;;;;;;;6.75;3.20;;;17.00;99.90;;;;;;5072379;28;20050;-48
2022/06/27 07:17:24;;;;;;;7.82;4.10;;;19.50;99.90;;;;;;5072093;28;20044;-49
2022/06/27 07:19:53;;;;;;;4.85;3.05;;;17.40;99.90;;;;;;5073218;28;20039;-47
2022/06/27 07:22:23;;;;;;;4.28;2.58;;;18.30;99.90;;;;;;5071343;28;20039;-45
2022/06/27 07:24:49;;;;;;;3.58;2.20;;;17.40;99.90;;;;;;5071889;28;20036;-45
2022/06/27 07:27:17;;;;;;;6.53;2.60;;;19.30;99.90;;;;;;5071477;28;20043;-48
2022/06/27 07:29:43;;;;;;;4.57;2.30;;;18.00;99.90;;;;;;5071244;28;20036;-48
2022/06/27 07:32:09;;;;;;;4.88;2.60;;;19.20;99.90;;;;;;5071497;28;20071;-45
2022/06/27 07:34:36;;;;;;;4.35;2.83;;;18.30;99.90;;;;;;5071776;28;20051;-48
2022/06/27 07:37:02;;;;;;;4.97;2.30;;;17.90;99.90;;;;;;5071815;28;20093;-45
2022/06/27 07:39:27;;;;;;;4.53;2.15;;;17.70;99.90;;;;;;5073485;28;20048;-47
2022/06/27 07:41:55;;;;;;;6.35;2.42;;;17.60;99.90;;;;;;5070591;28;20040;-46
2022/06/27 07:44:22;;;;;;;5.57;2.47;;;17.40;99.90;;;;;;5069751;28;20059;-43
2022/06/27 07:46:48;;;;;;;6.70;2.80;;;18.40;99.90;;;;;;5069699;28;20677;-46
2022/06/27 07:49:14;;;;;;;3.85;2.17;;;18.20;99.90;;;;;;5072431;28;20144;-44
2022/06/27 07:51:41;;;;;;;4.65;2.40;;;17.10;99.90;;;;;;5070718;28;20097;-46
2022/06/27 07:54:07;;;;;;;5.05;2.60;;;19.00;99.90;;;;;;5070735;28;20040;-43
2022/06/27 07:56:34;;;;;;;4.90;2.40;;;17.30;99.90;;;;;;5075639;28;20044;-45
2022/06/27 07:59:00;;;;;;;5.78;2.70;;;18.30;99.90;;;;;;5075716;28;20089;-47
2022/06/27 08:01:28;;;;;;;6.40;2.67;;;17.40;99.90;;;;;;5074435;28;20571;-48
2022/06/27 08:03:54;;;;;;;5.88;2.58;;;17.30;99.90;;;;;;5073458;28;20432;-48
2022/06/27 08:06:24;;;;;;;5.40;2.78;;;17.40;99.90;;;;;;5075108;28;20327;-44
2022/06/27 08:08:57;;;;;;;7.07;3.03;;;17.40;99.90;;;;;;5076171;28;20047;-47
2022/06/27 08:11:28;;;;;;;5.43;3.00;;;17.50;99.90;;;;;;5074814;28;20513;-49
2022/06/27 08:13:56;;;;;;;9.13;3.50;;;17.50;99.90;;;;;;5076022;28;20540;-48
2022/06/27 08:16:24;;;;;;;5.18;3.15;;;17.70;99.90;;;;;;5074004;28;20055;-46
2022/06/27 08:18:51;;;;;;;6.05;3.13;;;17.80;99.90;;;;;;5073978;28;20067;-45
2022/06/27 08:21:20;;;;;;;4.78;3.33;;;17.60;99.90;;;;;;5075439;28;20046;-44
2022/06/27 08:23:48;;;;;;;5.88;3.50;;;17.80;99.90;;;;;;5074368;28;20043;-47
2022/06/27 08:26:14;;;;;;;8.15;3.88;;;17.80;99.90;;;;;;5074237;28;20043;-46
2022/06/27 08:28:41;;;;;;;7.28;3.60;;;18.30;99.90;;;;;;5075855;28;20059;-43
2022/06/27 08:31:12;;;;;;;5.95;3.78;;;17.90;99.90;;;;;;5075376;28;20059;-46
2022/06/27 08:33:39;;;;;;;4.60;2.97;;;18.00;99.90;;;;;;5075248;28;20066;-48
2022/06/27 08:36:06;;;;;;;5.10;3.22;;;18.80;99.90;;;;;;5075020;28;20120;-48
2022/06/27 08:38:40;;;;;;;6.07;3.35;;;17.90;99.90;;;;;;5075727;28;20071;-48
2022/06/27 08:41:07;;;;;;;5.15;3.67;;;18.00;99.90;;;;;;5076428;28;20066;-47
2022/06/27 08:43:34;;;;;;;4.70;3.22;;;18.40;99.90;;;;;;5075219;28;20072;-47
2022/06/27 08:46:00;;;;;;;5.95;3.30;;;19.10;99.90;;;;;;5074970;28;20119;-46
2022/06/27 08:48:28;;;;;;;9.63;4.30;;;18.10;99.90;;;;;;5076358;28;20040;-47
2022/06/27 08:50:57;;;;;;;5.32;3.50;;;18.20;99.90;;;;;;5074976;28;20032;-46
2022/06/27 08:53:25;;;;;;;8.73;3.83;;;19.40;99.90;;;;;;5074298;28;20070;-43
2022/06/27 08:55:51;;;;;;;5.13;3.60;;;18.00;99.90;;;;;;5074208;28;20056;-48
2022/06/27 08:58:17;;;;;;;5.28;3.65;;;18.80;99.90;;;;;;5075095;28;20040;-46
2022/06/27 09:00:46;;;;;;;6.93;3.47;;;18.30;99.90;;;;;;5074298;28;20889;-47
2022/06/27 09:03:21;;;;;;;4.88;3.20;;;20.10;99.90;;;;;;5074454;28;20036;-44
2022/06/27 09:05:58;;;;;;;8.32;3.97;;;18.80;99.90;;;;;;5073980;28;20043;-48
2022/06/27 09:08:54;;;;;;;6.50;3.63;;;18.60;99.90;;;;;;5072710;28;20408;-47
2022/06/27 09:11:28;;;;;;;5.40;3.35;;;17.30;99.90;;;;;;5074811;28;20040;-44
2022/06/27 09:13:54;;;;;;;7.10;3.28;;;19.10;99.90;;;;;;5073245;28;20136;-45
2022/06/27 09:16:20;;;;;;;4.22;2.42;;;19.40;99.90;;;;;;5074277;28;20052;-48
2022/06/27 09:18:46;;;;;;;6.22;2.15;;;19.60;99.90;;;;;;5072182;28;20079;-47
2022/06/27 09:21:13;;;;;;;5.13;2.47;;;20.00;99.90;;;;;;5073817;28;20366;-47
2022/06/27 09:23:49;;;;;;;4.80;2.20;;;19.80;99.90;;;;;;5073499;28;20089;-47
2022/06/27 09:26:19;;;;;;;4.05;2.35;;;19.80;99.90;;;;;;5071552;28;20061;-48
2022/06/27 09:29:03;;;;;;;4.97;2.50;;;19.60;99.90;;;;;;5073484;28;20044;-48
2022/06/27 09:31:42;;;;;;;4.25;2.58;;;19.30;99.90;;;;;;5072609;28;20131;-48
2022/06/27 09:34:23;;;;;;;6.03;2.90;;;19.40;99.90;;;;;;5073025;28;20035;-44
2022/06/27 09:36:55;;;;;;;7.15;3.28;;;19.40;99.90;;;;;;5073175;28;20040;-47
2022/06/27 09:39:24;;;;;;;8.20;2.90;;;19.70;99.90;;;;;;5075036;28;20036;-48
2022/06/27 09:42:02;;;;;;;6.35;3.47;;;19.30;99.90;;;;;;5073322;28;20036;-49
2022/06/27 09:44:38;;;;;;;4.25;3.15;;;19.30;99.90;;;;;;5073495;28;20626;-51
2022/06/27 09:47:18;;;;;;;4.80;2.67;;;20.10;99.90;;;;;;5072150;28;20622;-45
2022/06/27 09:49:50;;;;;;;6.05;3.10;;;19.40;99.90;;;;;;5072609;28;20040;-45
2022/06/27 09:52:17;;;;;;;6.03;3.25;;;19.30;99.90;;;;;;5072375;28;20138;-46
2022/06/27 09:54:45;;;;;;;6.78;3.90;;;21.30;99.90;;;;;;5074662;28;20397;-48
2022/06/27 09:57:12;;;;;;;6.90;4.28;;;19.20;99.90;;;;;;5073767;28;20036;-49
2022/06/27 09:59:39;;;;;;;7.32;4.22;;;19.10;99.90;;;;;;5073777;28;20413;-49
2022/06/27 10:02:06;;;;;;;6.90;4.47;;;19.20;99.90;;;;;;5073205;28;20044;-47
2022/06/27 10:04:33;;;;;;;6.35;4.43;;;19.80;99.90;;;;;;5073085;28;20048;-49
2022/06/27 10:07:02;;;;;;;6.68;4.63;;;19.80;99.90;;;;;;5073116;28;20302;-46
2022/06/27 10:09:29;;;;;;;6.65;4.53;;;19.00;99.90;;;;;;5073487;28;20185;-49
2022/06/27 10:12:22;;;;;;;6.88;5.20;;;19.20;99.90;;;;;;5072804;28;20071;-48
2022/06/27 10:15:10;;;;;;;6.75;4.60;;;19.10;99.90;;;;;;5071742;28;20048;-46
2022/06/27 10:17:52;;;;;;;6.88;4.95;;;18.90;99.90;;;;;;5071000;28;20047;-49
2022/06/27 10:20:21;;;;;;;;;;;19.00;99.90;;;;;;5070423;28;20044;-48
2022/06/27 10:23:13;;;;;;;7.72;5.57;;;19.00;99.90;;;;;;5072008;28;19960;-46
2022/06/27 10:25:44;;;;;;;10.40;5.25;;;18.90;99.90;;;;;;5071304;28;20036;-50
2022/06/27 10:28:10;;;;;;;9.73;5.80;;;20.30;99.90;;;;;;5071881;28;20035;-49
2022/06/27 10:30:42;;;;;;;6.55;5.85;;;19.00;99.90;;;;;;5072511;28;20062;-50
2022/06/27 10:33:48;;;;;;;7.00;5.47;;;19.10;99.90;;;;;;5072519;28;20480;-49
2022/06/27 10:36:14;;;;;;;6.00;4.60;;;19.60;99.90;;;;;;4989366;28;20033;-49
2022/06/27 10:38:39;;;;;;;8.07;5.65;;;18.90;99.90;;;;;;4988664;28;20053;-50
2022/06/27 10:41:25;;;;;;;8.70;6.00;;;19.10;99.90;;;;;;4990745;28;20069;-48
2022/06/27 10:43:56;;;;;;;7.55;5.03;;;19.90;99.90;;;;;;4952663;28;20050;-49
2022/06/27 10:46:22;;;;;;;7.00;5.35;;;19.00;99.90;;;;;;4952225;28;20129;-49
2022/06/27 10:48:58;;;;;;;7.78;5.10;;;19.00;99.90;;;;;;4952553;28;20065;-46
2022/06/27 10:51:30;;;;;;;8.02;5.60;;;19.00;99.90;;;;;;4950434;28;20042;-50
2022/06/27 10:54:35;;;;;;;6.25;4.45;;;18.80;99.90;;;;;;4952454;28;20062;-51
2022/06/27 10:57:03;;;;;;;8.68;5.30;;;18.90;99.90;;;;;;4934738;28;20054;-50
2022/06/27 10:59:49;;;;;;;7.30;5.20;;;21.30;99.90;;;;;;4931161;28;20623;-50
2022/06/27 11:02:18;;;;;;;7.32;5.50;;;19.00;99.90;;;;;;4914324;29;20139;-50
2022/06/27 11:04:48;;;;;;;9.43;5.47;;;19.00;99.90;;;;;;4913146;29;20130;-49
2022/06/27 11:07:15;;;;;;;10.02;5.45;;;19.00;99.90;;;;;;4914073;29;20051;-49
2022/06/27 11:09:43;;;;;;;9.18;5.28;;;19.10;99.90;;;;;;4924902;28;20055;-50
2022/06/27 11:12:20;;;;;;;6.90;4.95;;;19.30;99.90;;;;;;4951475;28;20043;-50
2022/06/27 11:14:49;;;;;;;5.38;3.85;;;19.40;99.90;;;;;;4951331;28;20062;-50
2022/06/27 11:17:41;;;;;;;5.45;4.05;;;19.40;99.90;;;;;;4952906;28;20077;-49
2022/06/27 11:20:16;;;;;;;7.65;4.63;;;19.50;99.90;;;;;;4951196;28;20051;-50
2022/06/27 11:22:44;;;;;;;7.78;4.85;;;19.40;99.90;;;;;;4952099;28;20060;-50
2022/06/27 11:25:13;;;;;;;7.72;5.35;;;19.50;99.90;;;;;;4951164;28;20054;-50
2022/06/27 11:31:57;;;;;;;7.22;5.35;;;19.60;99.90;;;;;;4950438;28;20047;-50
2022/06/27 11:33:31;;;;;;;9.18;6.45;;;19.70;99.90;;;;;;4977529;28;20097;-50
2022/06/27 11:35:58;;;;;;;11.00;6.13;;;21.30;99.90;;;;;;4994469;28;20054;-50
2022/06/27 11:38:40;;;;;;;9.07;5.90;;;19.50;99.90;;;;;;5000796;28;20061;-48
2022/06/27 11:41:08;;;;;;;8.48;5.68;;;19.70;99.90;;;;;;5075875;28;20064;-50
2022/06/27 11:43:56;;;;;;;8.20;6.05;;;20.30;99.90;;;;;;5075172;28;20033;-50
2022/06/27 11:46:31;;;;;;;20.20;6.30;;;19.90;99.90;;;;;;5075357;28;20054;-47
2022/06/27 11:49:04;;;;;;;11.32;6.07;;;19.70;99.90;;;;;;5075675;28;21261;-48
2022/06/27 11:51:38;;;;;;;11.70;6.07;;;19.80;99.90;;;;;;5074884;28;20067;-50
2022/06/27 11:54:09;;;;;;;9.43;6.07;;;19.70;99.90;;;;;;5074783;28;20040;-47
2022/06/27 11:56:44;;;;;;;7.32;5.93;;;19.80;99.90;;;;;;5076121;28;20127;-48
2022/06/27 11:59:11;;;;;;;7.55;6.03;;;20.00;99.90;;;;;;5073849;28;20043;-48
2022/06/27 12:02:09;;;;;;;8.45;5.82;;;20.90;99.90;;;;;;5075017;28;20592;-50
2022/06/27 12:04:35;;;;;;;7.20;5.53;;;20.00;99.90;;;;;;5011205;28;20080;-48
2022/06/27 12:07:10;;;;;;;7.53;5.20;;;19.90;99.90;;;;;;5011336;28;20120;-47
2022/06/27 12:09:52;;;;;;;7.53;5.65;;;21.90;99.90;;;;;;5011249;28;20128;-46
2022/06/27 12:12:20;;;;;;;7.15;5.47;;;20.00;99.90;;;;;;5010817;28;20064;-50
2022/06/27 12:14:48;;;;;;;8.15;5.60;;;20.40;99.90;;;;;;5011051;28;20056;-50
2022/06/27 12:17:13;;;;;;;8.27;5.80;;;19.80;99.90;;;;;;5011892;28;20584;-46
2022/06/27 12:19:42;;;;;;;7.70;5.80;;;19.90;99.90;;;;;;5011791;28;20049;-48
2022/06/27 12:22:09;;;;;;;8.52;5.43;;;20.10;99.90;;;;;;4995153;28;20134;-51
2022/06/27 12:24:35;;;;;;;6.63;5.15;;;19.80;99.90;;;;;;5011988;28;20037;-46
2022/06/27 12:27:01;;;;;;;7.13;5.28;;;19.90;99.90;;;;;;5011198;28;20253;-49
2022/06/27 12:29:26;;;;;;;9.10;5.47;;;19.90;99.90;;;;;;5013242;28;20556;-51
2022/06/27 12:31:52;;;;;;;6.90;4.78;;;20.30;99.90;;;;;;5010542;28;20041;-50
2022/06/27 12:34:18;;;;;;;7.70;5.25;;;19.90;99.90;;;;;;5011647;28;20104;-46
2022/06/27 12:36:46;;;;;;;6.43;5.20;;;20.00;99.90;;;;;;5013031;28;20088;-51
2022/06/27 12:39:11;;;;;;;5.82;4.97;;;20.00;99.90;;;;;;5017074;28;20440;-46
2022/06/27 12:41:37;;;;;;;8.85;5.63;;;20.10;99.90;;;;;;5074922;28;20032;-49
2022/06/27 12:44:05;;;;;;;11.23;6.05;;;21.40;99.90;;;;;;5073759;28;20046;-50
2022/06/27 12:46:32;;;;;;;8.18;5.45;;;20.20;99.90;;;;;;5075565;28;20040;-47
2022/06/27 12:48:59;;;;;;;7.57;5.72;;;20.10;99.90;;;;;;5074715;28;20139;-46
2022/06/27 12:51:26;;;;;;;7.60;5.00;;;20.00;99.90;;;;;;5074729;28;20416;-47
2022/06/27 12:53:53;;;;;;;7.53;5.80;;;20.30;99.90;;;;;;5073903;28;20067;-48